WIDN/TNJ METAR and TAF weather

Enter ICAO airport designator
Station Type Date Time Source
WIDN METAR 2024/05/28 23:30 UTC NOAA

WIDN 282330Z 00000KT 9000 FEW017 27/26 Q1008 NOSIG


Station Type Date Time Source
WIDN Decoded METAR 2024/05/28 23:30 UTC NOAA

Station name not available
May 28, 2024 - 07:30 PM EDT / 2024.05.28 2330 UTC
Wind: Calm:0
Visibility: 5 mile(s):0
Sky conditions: mostly clear
Temperature: 80 F (27 C)
Dew Point: 78 F (26 C)
Relative Humidity: 94%
Pressure (altimeter): 29.77 in. Hg (1008 hPa)
ob: WIDN 282330Z 00000KT 9000 FEW017 27/26 Q1008 NOSIG
cycle: 23

Station Type Date Time Source
WIDN TAF 2011/04/08 06:00 UTC NOAA